ADDS METAR Data INFO
IDs: Format: Raw Decoded Include TAF

Data at: 1323 UTC 21 Feb 2018

KVLD 211320Z 14004KT 6SM BR BKN003 BKN065 20/19 A3041 RMK AO2 T02000194